sensor_id;sensor_type;location;lat;lon;timestamp;P1;durP1;ratioP1;P2;durP2;ratioP2
24439;SDS011;12618;54.386;18.394;2022-08-18T00:01:14;23.85;;;21.60;;
24439;SDS011;12618;54.386;18.394;2022-08-18T00:03:45;20.43;;;18.42;;
24439;SDS011;12618;54.386;18.394;2022-08-18T00:06:16;21.42;;;19.35;;
24439;SDS011;12618;54.386;18.394;2022-08-18T00:08:47;20.62;;;18.62;;
24439;SDS011;12618;54.386;18.394;2022-08-18T00:11:17;21.70;;;19.50;;
24439;SDS011;12618;54.386;18.394;2022-08-18T00:13:48;19.37;;;17.48;;
24439;SDS011;12618;54.386;18.394;2022-08-18T00:16:18;23.07;;;20.70;;
24439;SDS011;12618;54.386;18.394;2022-08-18T00:18:49;23.60;;;21.30;;
24439;SDS011;12618;54.386;18.394;2022-08-18T00:21:19;24.40;;;21.85;;
24439;SDS011;12618;54.386;18.394;2022-08-18T00:23:50;24.98;;;22.35;;
24439;SDS011;12618;54.386;18.394;2022-08-18T00:26:20;24.35;;;21.93;;
24439;SDS011;12618;54.386;18.394;2022-08-18T00:28:51;26.55;;;20.60;;
24439;SDS011;12618;54.386;18.394;2022-08-18T00:31:22;22.52;;;19.80;;
24439;SDS011;12618;54.386;18.394;2022-08-18T00:33:57;26.85;;;18.02;;
24439;SDS011;12618;54.386;18.394;2022-08-18T00:36:24;23.90;;;18.20;;
24439;SDS011;12618;54.386;18.394;2022-08-18T00:38:55;19.48;;;17.45;;
24439;SDS011;12618;54.386;18.394;2022-08-18T00:41:26;18.10;;;16.30;;
24439;SDS011;12618;54.386;18.394;2022-08-18T00:43:57;17.45;;;15.60;;
24439;SDS011;12618;54.386;18.394;2022-08-18T00:46:29;16.80;;;14.93;;
24439;SDS011;12618;54.386;18.394;2022-08-18T00:49:00;18.65;;;16.25;;
24439;SDS011;12618;54.386;18.394;2022-08-18T00:51:39;18.25;;;16.35;;
24439;SDS011;12618;54.386;18.394;2022-08-18T00:56:44;18.77;;;15.18;;
24439;SDS011;12618;54.386;18.394;2022-08-18T00:59:21;22.98;;;15.05;;
24439;SDS011;12618;54.386;18.394;2022-08-18T01:01:52;17.82;;;15.25;;
24439;SDS011;12618;54.386;18.394;2022-08-18T01:04:25;16.57;;;14.98;;
24439;SDS011;12618;54.386;18.394;2022-08-18T01:06:57;18.87;;;15.28;;
24439;SDS011;12618;54.386;18.394;2022-08-18T01:09:29;17.67;;;14.53;;
24439;SDS011;12618;54.386;18.394;2022-08-18T01:12:00;17.27;;;14.63;;
24439;SDS011;12618;54.386;18.394;2022-08-18T01:14:30;19.15;;;17.00;;
24439;SDS011;12618;54.386;18.394;2022-08-18T01:17:01;21.68;;;15.45;;
24439;SDS011;12618;54.386;18.394;2022-08-18T01:19:50;21.20;;;14.98;;
24439;SDS011;12618;54.386;18.394;2022-08-18T01:22:49;20.80;;;14.68;;
24439;SDS011;12618;54.386;18.394;2022-08-18T01:25:19;25.85;;;14.68;;
24439;SDS011;12618;54.386;18.394;2022-08-18T01:28:09;20.75;;;15.35;;
24439;SDS011;12618;54.386;18.394;2022-08-18T01:30:44;20.57;;;15.83;;
24439;SDS011;12618;54.386;18.394;2022-08-18T01:33:15;20.92;;;16.35;;
24439;SDS011;12618;54.386;18.394;2022-08-18T01:35:47;20.10;;;16.45;;
24439;SDS011;12618;54.386;18.394;2022-08-18T01:38:19;23.12;;;16.10;;
24439;SDS011;12618;54.386;18.394;2022-08-18T01:40:50;16.70;;;14.90;;
24439;SDS011;12618;54.386;18.394;2022-08-18T01:43:20;25.97;;;15.88;;
24439;SDS011;12618;54.386;18.394;2022-08-18T01:45:51;33.85;;;15.85;;
24439;SDS011;12618;54.386;18.394;2022-08-18T01:48:21;30.23;;;15.32;;
24439;SDS011;12618;54.386;18.394;2022-08-18T01:50:52;19.82;;;15.20;;
24439;SDS011;12618;54.386;18.394;2022-08-18T01:53:25;33.55;;;15.70;;
24439;SDS011;12618;54.386;18.394;2022-08-18T01:55:56;25.00;;;15.50;;
24439;SDS011;12618;54.386;18.394;2022-08-18T01:58:27;22.13;;;14.28;;
24439;SDS011;12618;54.386;18.394;2022-08-18T02:00:58;24.07;;;16.23;;
24439;SDS011;12618;54.386;18.394;2022-08-18T02:03:35;33.78;;;14.60;;
24439;SDS011;12618;54.386;18.394;2022-08-18T02:06:09;26.17;;;14.20;;
24439;SDS011;12618;54.386;18.394;2022-08-18T02:08:40;19.80;;;14.70;;
24439;SDS011;12618;54.386;18.394;2022-08-18T02:11:10;24.70;;;14.87;;
24439;SDS011;12618;54.386;18.394;2022-08-18T02:13:41;25.77;;;14.03;;
24439;SDS011;12618;54.386;18.394;2022-08-18T02:16:12;29.95;;;13.40;;
24439;SDS011;12618;54.386;18.394;2022-08-18T02:18:43;19.40;;;14.30;;
24439;SDS011;12618;54.386;18.394;2022-08-18T02:21:15;32.75;;;14.15;;
24439;SDS011;12618;54.386;18.394;2022-08-18T02:23:46;18.45;;;15.38;;
24439;SDS011;12618;54.386;18.394;2022-08-18T02:26:17;25.12;;;14.63;;
24439;SDS011;12618;54.386;18.394;2022-08-18T02:28:48;18.52;;;14.58;;
24439;SDS011;12618;54.386;18.394;2022-08-18T02:31:20;29.65;;;15.15;;
24439;SDS011;12618;54.386;18.394;2022-08-18T02:33:51;18.82;;;15.40;;
24439;SDS011;12618;54.386;18.394;2022-08-18T02:36:21;21.15;;;15.18;;
24439;SDS011;12618;54.386;18.394;2022-08-18T02:38:52;17.98;;;14.68;;
24439;SDS011;12618;54.386;18.394;2022-08-18T02:41:23;19.15;;;15.08;;
24439;SDS011;12618;54.386;18.394;2022-08-18T02:43:55;27.90;;;15.55;;
24439;SDS011;12618;54.386;18.394;2022-08-18T02:46:26;33.88;;;14.60;;
24439;SDS011;12618;54.386;18.394;2022-08-18T02:48:57;33.23;;;15.23;;
24439;SDS011;12618;54.386;18.394;2022-08-18T02:51:28;33.73;;;14.87;;
24439;SDS011;12618;54.386;18.394;2022-08-18T02:53:59;22.48;;;14.95;;
24439;SDS011;12618;54.386;18.394;2022-08-18T02:56:30;34.55;;;14.43;;
24439;SDS011;12618;54.386;18.394;2022-08-18T02:59:02;31.45;;;14.53;;
24439;SDS011;12618;54.386;18.394;2022-08-18T03:01:34;31.53;;;14.73;;
24439;SDS011;12618;54.386;18.394;2022-08-18T03:06:37;15.78;;;14.18;;
24439;SDS011;12618;54.386;18.394;2022-08-18T03:09:08;18.95;;;14.35;;
24439;SDS011;12618;54.386;18.394;2022-08-18T03:11:40;23.35;;;14.55;;
24439;SDS011;12618;54.386;18.394;2022-08-18T03:14:11;37.45;;;14.45;;
24439;SDS011;12618;54.386;18.394;2022-08-18T03:16:43;26.42;;;14.53;;
24439;SDS011;12618;54.386;18.394;2022-08-18T03:19:14;42.05;;;13.75;;
24439;SDS011;12618;54.386;18.394;2022-08-18T03:21:46;28.80;;;14.20;;
24439;SDS011;12618;54.386;18.394;2022-08-18T03:24:16;39.30;;;13.88;;
24439;SDS011;12618;54.386;18.394;2022-08-18T03:26:48;48.30;;;14.45;;
24439;SDS011;12618;54.386;18.394;2022-08-18T03:29:19;73.90;;;13.98;;
24439;SDS011;12618;54.386;18.394;2022-08-18T03:31:50;40.33;;;14.60;;
24439;SDS011;12618;54.386;18.394;2022-08-18T03:34:20;50.03;;;14.55;;
24439;SDS011;12618;54.386;18.394;2022-08-18T03:36:51;25.82;;;14.75;;
24439;SDS011;12618;54.386;18.394;2022-08-18T03:39:22;47.43;;;14.60;;
24439;SDS011;12618;54.386;18.394;2022-08-18T03:41:54;39.18;;;14.10;;
24439;SDS011;12618;54.386;18.394;2022-08-18T03:44:25;36.90;;;14.70;;
24439;SDS011;12618;54.386;18.394;2022-08-18T03:46:57;42.03;;;14.63;;
24439;SDS011;12618;54.386;18.394;2022-08-18T03:49:28;44.73;;;14.73;;
24439;SDS011;12618;54.386;18.394;2022-08-18T03:51:58;50.25;;;14.73;;
24439;SDS011;12618;54.386;18.394;2022-08-18T03:54:29;66.75;;;14.20;;
24439;SDS011;12618;54.386;18.394;2022-08-18T03:57:03;31.73;;;14.15;;
24439;SDS011;12618;54.386;18.394;2022-08-18T03:59:33;28.45;;;13.40;;
24439;SDS011;12618;54.386;18.394;2022-08-18T04:02:04;40.03;;;14.90;;
24439;SDS011;12618;54.386;18.394;2022-08-18T04:04:34;50.90;;;15.33;;
24439;SDS011;12618;54.386;18.394;2022-08-18T04:07:07;33.08;;;14.38;;
24439;SDS011;12618;54.386;18.394;2022-08-18T04:09:38;19.20;;;14.68;;
24439;SDS011;12618;54.386;18.394;2022-08-18T04:12:10;18.85;;;14.00;;
24439;SDS011;12618;54.386;18.394;2022-08-18T04:14:42;27.17;;;13.60;;
24439;SDS011;12618;54.386;18.394;2022-08-18T04:17:13;41.55;;;14.58;;
24439;SDS011;12618;54.386;18.394;2022-08-18T04:19:43;34.30;;;13.90;;
24439;SDS011;12618;54.386;18.394;2022-08-18T04:22:14;32.93;;;14.00;;
24439;SDS011;12618;54.386;18.394;2022-08-18T04:24:46;42.03;;;12.82;;
24439;SDS011;12618;54.386;18.394;2022-08-18T04:27:17;31.42;;;12.93;;
24439;SDS011;12618;54.386;18.394;2022-08-18T04:29:49;29.60;;;12.23;;
24439;SDS011;12618;54.386;18.394;2022-08-18T04:32:20;41.40;;;13.15;;
24439;SDS011;12618;54.386;18.394;2022-08-18T04:34:50;103.27;;;13.75;;
24439;SDS011;12618;54.386;18.394;2022-08-18T04:37:21;73.83;;;12.58;;
24439;SDS011;12618;54.386;18.394;2022-08-18T04:39:52;25.95;;;12.43;;
24439;SDS011;12618;54.386;18.394;2022-08-18T04:42:22;75.52;;;13.15;;
24439;SDS011;12618;54.386;18.394;2022-08-18T04:44:53;67.58;;;13.10;;
24439;SDS011;12618;54.386;18.394;2022-08-18T04:47:23;56.05;;;13.45;;
24439;SDS011;12618;54.386;18.394;2022-08-18T04:49:54;52.50;;;13.40;;
24439;SDS011;12618;54.386;18.394;2022-08-18T04:52:27;31.60;;;13.48;;
24439;SDS011;12618;54.386;18.394;2022-08-18T04:55:16;67.80;;;15.03;;
24439;SDS011;12618;54.386;18.394;2022-08-18T04:57:47;40.52;;;14.80;;
24439;SDS011;12618;54.386;18.394;2022-08-18T05:00:17;89.80;;;14.80;;
24439;SDS011;12618;54.386;18.394;2022-08-18T05:02:48;50.00;;;16.40;;
24439;SDS011;12618;54.386;18.394;2022-08-18T05:05:19;93.27;;;17.85;;
24439;SDS011;12618;54.386;18.394;2022-08-18T05:07:49;55.48;;;17.05;;
24439;SDS011;12618;54.386;18.394;2022-08-18T05:10:20;89.70;;;19.80;;
24439;SDS011;12618;54.386;18.394;2022-08-18T05:12:51;53.80;;;20.92;;
24439;SDS011;12618;54.386;18.394;2022-08-18T05:15:21;47.50;;;21.23;;
24439;SDS011;12618;54.386;18.394;2022-08-18T05:17:52;59.93;;;22.05;;
24439;SDS011;12618;54.386;18.394;2022-08-18T05:20:22;172.50;;;25.05;;
24439;SDS011;12618;54.386;18.394;2022-08-18T05:22:54;167.98;;;26.17;;
24439;SDS011;12618;54.386;18.394;2022-08-18T05:25:26;86.85;;;23.20;;
24439;SDS011;12618;54.386;18.394;2022-08-18T05:27:58;63.58;;;22.67;;
24439;SDS011;12618;54.386;18.394;2022-08-18T05:30:29;72.12;;;24.27;;
24439;SDS011;12618;54.386;18.394;2022-08-18T05:32:59;99.52;;;23.90;;
24439;SDS011;12618;54.386;18.394;2022-08-18T05:35:43;72.92;;;24.02;;
24439;SDS011;12618;54.386;18.394;2022-08-18T05:40:43;156.95;;;25.88;;
24439;SDS011;12618;54.386;18.394;2022-08-18T05:43:15;70.05;;;25.85;;
24439;SDS011;12618;54.386;18.394;2022-08-18T05:45:46;168.93;;;26.55;;
24439;SDS011;12618;54.386;18.394;2022-08-18T05:48:19;75.90;;;24.05;;
24439;SDS011;12618;54.386;18.394;2022-08-18T05:50:51;154.15;;;28.65;;
24439;SDS011;12618;54.386;18.394;2022-08-18T05:53:22;132.95;;;25.90;;
24439;SDS011;12618;54.386;18.394;2022-08-18T05:55:59;78.02;;;26.57;;
24439;SDS011;12618;54.386;18.394;2022-08-18T05:58:48;106.83;;;26.30;;
24439;SDS011;12618;54.386;18.394;2022-08-18T06:04:01;72.85;;;25.37;;
24439;SDS011;12618;54.386;18.394;2022-08-18T06:06:32;79.40;;;27.25;;
24439;SDS011;12618;54.386;18.394;2022-08-18T06:09:13;44.55;;;25.72;;
24439;SDS011;12618;54.386;18.394;2022-08-18T06:11:44;40.12;;;26.25;;
24439;SDS011;12618;54.386;18.394;2022-08-18T06:14:15;43.15;;;27.75;;
24439;SDS011;12618;54.386;18.394;2022-08-18T06:16:56;41.90;;;26.75;;
24439;SDS011;12618;54.386;18.394;2022-08-18T06:30:11;33.65;;;25.80;;
24439;SDS011;12618;54.386;18.394;2022-08-18T06:35:57;37.30;;;27.95;;
24439;SDS011;12618;54.386;18.394;2022-08-18T06:41:13;34.10;;;25.85;;
24439;SDS011;12618;54.386;18.394;2022-08-18T06:43:52;29.65;;;24.27;;
24439;SDS011;12618;54.386;18.394;2022-08-18T06:46:22;31.05;;;25.60;;
24439;SDS011;12618;54.386;18.394;2022-08-18T06:48:57;30.95;;;25.48;;
24439;SDS011;12618;54.386;18.394;2022-08-18T06:51:25;31.50;;;24.98;;
24439;SDS011;12618;54.386;18.394;2022-08-18T06:53:58;30.23;;;23.50;;
24439;SDS011;12618;54.386;18.394;2022-08-18T06:59:14;36.08;;;28.17;;
24439;SDS011;12618;54.386;18.394;2022-08-18T07:01:47;33.53;;;26.07;;
24439;SDS011;12618;54.386;18.394;2022-08-18T07:07:14;32.98;;;26.48;;
24439;SDS011;12618;54.386;18.394;2022-08-18T07:09:46;30.65;;;24.95;;
24439;SDS011;12618;54.386;18.394;2022-08-18T07:12:18;33.58;;;27.15;;
24439;SDS011;12618;54.386;18.394;2022-08-18T07:14:53;37.23;;;28.02;;
24439;SDS011;12618;54.386;18.394;2022-08-18T07:17:32;29.67;;;26.45;;
24439;SDS011;12618;54.386;18.394;2022-08-18T07:20:04;29.90;;;23.77;;
24439;SDS011;12618;54.386;18.394;2022-08-18T07:22:32;26.80;;;23.77;;
24439;SDS011;12618;54.386;18.394;2022-08-18T07:25:05;30.88;;;24.50;;
24439;SDS011;12618;54.386;18.394;2022-08-18T07:27:46;23.57;;;20.90;;
24439;SDS011;12618;54.386;18.394;2022-08-18T07:35:49;23.65;;;19.20;;
24439;SDS011;12618;54.386;18.394;2022-08-18T07:46:06;21.55;;;18.52;;
24439;SDS011;12618;54.386;18.394;2022-08-18T07:48:36;17.53;;;14.83;;
24439;SDS011;12618;54.386;18.394;2022-08-18T07:51:21;19.48;;;14.85;;
24439;SDS011;12618;54.386;18.394;2022-08-18T07:53:54;15.30;;;13.22;;
24439;SDS011;12618;54.386;18.394;2022-08-18T07:58:59;13.43;;;12.03;;
24439;SDS011;12618;54.386;18.394;2022-08-18T08:01:32;13.30;;;10.72;;
24439;SDS011;12618;54.386;18.394;2022-08-18T08:06:53;15.25;;;11.15;;
24439;SDS011;12618;54.386;18.394;2022-08-18T08:14:48;16.45;;;11.15;;
24439;SDS011;12618;54.386;18.394;2022-08-18T08:17:25;15.88;;;11.08;;
24439;SDS011;12618;54.386;18.394;2022-08-18T08:20:05;13.78;;;10.45;;
24439;SDS011;12618;54.386;18.394;2022-08-18T08:22:37;15.43;;;10.18;;
24439;SDS011;12618;54.386;18.394;2022-08-18T08:25:28;12.45;;;9.20;;
24439;SDS011;12618;54.386;18.394;2022-08-18T08:30:32;12.70;;;9.93;;
24439;SDS011;12618;54.386;18.394;2022-08-18T08:33:06;15.03;;;9.80;;
24439;SDS011;12618;54.386;18.394;2022-08-18T08:35:40;13.38;;;10.70;;
24439;SDS011;12618;54.386;18.394;2022-08-18T08:38:14;11.93;;;10.00;;
24439;SDS011;12618;54.386;18.394;2022-08-18T08:40:59;11.22;;;9.63;;
24439;SDS011;12618;54.386;18.394;2022-08-18T08:43:29;10.55;;;9.43;;
24439;SDS011;12618;54.386;18.394;2022-08-18T08:46:05;13.98;;;9.20;;
24439;SDS011;12618;54.386;18.394;2022-08-18T08:48:42;14.23;;;9.75;;
24439;SDS011;12618;54.386;18.394;2022-08-18T08:53:52;11.05;;;7.97;;
24439;SDS011;12618;54.386;18.394;2022-08-18T08:56:27;10.20;;;7.62;;
24439;SDS011;12618;54.386;18.394;2022-08-18T09:04:00;12.20;;;8.25;;
24439;SDS011;12618;54.386;18.394;2022-08-18T09:19:50;13.45;;;8.13;;
24439;SDS011;12618;54.386;18.394;2022-08-18T09:24:59;9.90;;;7.58;;
24439;SDS011;12618;54.386;18.394;2022-08-18T09:27:43;8.25;;;7.40;;
24439;SDS011;12618;54.386;18.394;2022-08-18T09:35:56;7.83;;;7.17;;
24439;SDS011;12618;54.386;18.394;2022-08-18T09:38:25;10.30;;;7.20;;
24439;SDS011;12618;54.386;18.394;2022-08-18T09:41:17;9.60;;;8.18;;
24439;SDS011;12618;54.386;18.394;2022-08-18T09:51:59;10.78;;;7.40;;
24439;SDS011;12618;54.386;18.394;2022-08-18T09:54:31;9.00;;;7.28;;
24439;SDS011;12618;54.386;18.394;2022-08-18T10:02:09;9.85;;;7.28;;
24439;SDS011;12618;54.386;18.394;2022-08-18T10:04:41;10.05;;;7.33;;
24439;SDS011;12618;54.386;18.394;2022-08-18T10:07:30;11.28;;;8.13;;
24439;SDS011;12618;54.386;18.394;2022-08-18T10:29:34;9.50;;;8.60;;
24439;SDS011;12618;54.386;18.394;2022-08-18T10:37:23;13.50;;;8.85;;
24439;SDS011;12618;54.386;18.394;2022-08-18T10:42:32;11.00;;;8.53;;
24439;SDS011;12618;54.386;18.394;2022-08-18T10:45:09;10.93;;;9.03;;
24439;SDS011;12618;54.386;18.394;2022-08-18T10:47:39;10.53;;;8.10;;
24439;SDS011;12618;54.386;18.394;2022-08-18T10:50:20;9.93;;;8.88;;
24439;SDS011;12618;54.386;18.394;2022-08-18T10:58:19;9.80;;;8.10;;
24439;SDS011;12618;54.386;18.394;2022-08-18T11:06:03;9.33;;;7.95;;
24439;SDS011;12618;54.386;18.394;2022-08-18T11:08:36;9.90;;;8.78;;
24439;SDS011;12618;54.386;18.394;2022-08-18T11:11:07;10.38;;;8.55;;
24439;SDS011;12618;54.386;18.394;2022-08-18T11:19:17;9.83;;;7.80;;
24439;SDS011;12618;54.386;18.394;2022-08-18T11:21:39;16.40;;;7.75;;
24439;SDS011;12618;54.386;18.394;2022-08-18T11:26:50;11.15;;;8.28;;
24439;SDS011;12618;54.386;18.394;2022-08-18T11:31:51;12.90;;;8.95;;
24439;SDS011;12618;54.386;18.394;2022-08-18T11:37:22;9.73;;;8.33;;
24439;SDS011;12618;54.386;18.394;2022-08-18T11:39:58;12.07;;;8.73;;
24439;SDS011;12618;54.386;18.394;2022-08-18T11:42:26;9.55;;;8.48;;
24439;SDS011;12618;54.386;18.394;2022-08-18T11:45:12;8.68;;;7.78;;
24439;SDS011;12618;54.386;18.394;2022-08-18T11:47:47;10.93;;;8.40;;
24439;SDS011;12618;54.386;18.394;2022-08-18T11:50:11;8.98;;;8.08;;
24439;SDS011;12618;54.386;18.394;2022-08-18T11:52:46;10.63;;;8.48;;
24439;SDS011;12618;54.386;18.394;2022-08-18T11:55:28;12.35;;;10.58;;
24439;SDS011;12618;54.386;18.394;2022-08-18T11:57:59;13.15;;;10.15;;
24439;SDS011;12618;54.386;18.394;2022-08-18T12:00:37;13.78;;;11.25;;
24439;SDS011;12618;54.386;18.394;2022-08-18T12:05:53;14.80;;;12.43;;
24439;SDS011;12618;54.386;18.394;2022-08-18T12:11:00;14.65;;;12.10;;
24439;SDS011;12618;54.386;18.394;2022-08-18T12:13:31;14.75;;;12.50;;
24439;SDS011;12618;54.386;18.394;2022-08-18T12:16:09;13.75;;;12.37;;
24439;SDS011;12618;54.386;18.394;2022-08-18T12:18:40;12.95;;;11.65;;
24439;SDS011;12618;54.386;18.394;2022-08-18T12:21:11;13.45;;;12.05;;
24439;SDS011;12618;54.386;18.394;2022-08-18T12:23:42;16.27;;;10.38;;
24439;SDS011;12618;54.386;18.394;2022-08-18T12:26:13;16.77;;;11.15;;
24439;SDS011;12618;54.386;18.394;2022-08-18T12:28:44;13.72;;;11.45;;
24439;SDS011;12618;54.386;18.394;2022-08-18T12:31:14;15.60;;;11.43;;
24439;SDS011;12618;54.386;18.394;2022-08-18T12:33:45;12.47;;;11.18;;
24439;SDS011;12618;54.386;18.394;2022-08-18T12:36:17;13.10;;;11.60;;
24439;SDS011;12618;54.386;18.394;2022-08-18T12:38:47;14.65;;;11.65;;
24439;SDS011;12618;54.386;18.394;2022-08-18T12:41:18;14.38;;;11.93;;
24439;SDS011;12618;54.386;18.394;2022-08-18T12:43:49;14.58;;;11.55;;
24439;SDS011;12618;54.386;18.394;2022-08-18T12:46:19;13.05;;;11.40;;
24439;SDS011;12618;54.386;18.394;2022-08-18T12:48:50;13.05;;;10.85;;
24439;SDS011;12618;54.386;18.394;2022-08-18T12:51:21;12.53;;;11.25;;
24439;SDS011;12618;54.386;18.394;2022-08-18T12:53:51;15.60;;;12.28;;
24439;SDS011;12618;54.386;18.394;2022-08-18T12:56:26;14.23;;;12.25;;
24439;SDS011;12618;54.386;18.394;2022-08-18T12:58:59;19.17;;;12.30;;
24439;SDS011;12618;54.386;18.394;2022-08-18T13:01:31;14.95;;;11.12;;
24439;SDS011;12618;54.386;18.394;2022-08-18T13:04:02;15.50;;;12.33;;
24439;SDS011;12618;54.386;18.394;2022-08-18T13:06:37;15.68;;;11.73;;
24439;SDS011;12618;54.386;18.394;2022-08-18T13:09:06;15.23;;;12.47;;
24439;SDS011;12618;54.386;18.394;2022-08-18T13:11:38;15.50;;;13.93;;
24439;SDS011;12618;54.386;18.394;2022-08-18T13:14:10;18.57;;;13.50;;
24439;SDS011;12618;54.386;18.394;2022-08-18T13:16:41;15.65;;;11.85;;
24439;SDS011;12618;54.386;18.394;2022-08-18T13:19:13;12.70;;;11.40;;
24439;SDS011;12618;54.386;18.394;2022-08-18T13:21:44;16.15;;;12.70;;
24439;SDS011;12618;54.386;18.394;2022-08-18T13:24:15;17.55;;;12.53;;
24439;SDS011;12618;54.386;18.394;2022-08-18T13:26:46;20.43;;;12.93;;
24439;SDS011;12618;54.386;18.394;2022-08-18T13:29:17;19.92;;;14.63;;
24439;SDS011;12618;54.386;18.394;2022-08-18T13:31:48;24.35;;;14.50;;
24439;SDS011;12618;54.386;18.394;2022-08-18T13:34:20;16.85;;;14.25;;
24439;SDS011;12618;54.386;18.394;2022-08-18T13:36:50;16.97;;;12.90;;
24439;SDS011;12618;54.386;18.394;2022-08-18T13:39:22;14.98;;;12.03;;
24439;SDS011;12618;54.386;18.394;2022-08-18T13:41:53;13.72;;;12.30;;
24439;SDS011;12618;54.386;18.394;2022-08-18T13:44:24;16.52;;;12.45;;
24439;SDS011;12618;54.386;18.394;2022-08-18T13:46:58;21.45;;;12.20;;
24439;SDS011;12618;54.386;18.394;2022-08-18T13:49:28;14.45;;;12.40;;
24439;SDS011;12618;54.386;18.394;2022-08-18T13:51:59;15.75;;;13.60;;
24439;SDS011;12618;54.386;18.394;2022-08-18T13:54:31;16.90;;;15.05;;
24439;SDS011;12618;54.386;18.394;2022-08-18T13:57:03;20.30;;;15.85;;
24439;SDS011;12618;54.386;18.394;2022-08-18T13:59:34;16.37;;;13.90;;
24439;SDS011;12618;54.386;18.394;2022-08-18T14:02:06;14.63;;;12.70;;
24439;SDS011;12618;54.386;18.394;2022-08-18T14:04:37;16.15;;;12.68;;
24439;SDS011;12618;54.386;18.394;2022-08-18T14:07:08;13.08;;;11.78;;
24439;SDS011;12618;54.386;18.394;2022-08-18T14:09:38;14.80;;;11.18;;
24439;SDS011;12618;54.386;18.394;2022-08-18T14:12:15;12.65;;;11.35;;
24439;SDS011;12618;54.386;18.394;2022-08-18T14:14:44;14.93;;;10.82;;
24439;SDS011;12618;54.386;18.394;2022-08-18T14:17:18;13.88;;;11.15;;
24439;SDS011;12618;54.386;18.394;2022-08-18T14:19:53;14.13;;;11.33;;
24439;SDS011;12618;54.386;18.394;2022-08-18T14:22:42;14.07;;;11.40;;
24439;SDS011;12618;54.386;18.394;2022-08-18T14:25:31;17.20;;;12.75;;
24439;SDS011;12618;54.386;18.394;2022-08-18T14:28:20;20.45;;;12.90;;
24439;SDS011;12618;54.386;18.394;2022-08-18T14:30:51;15.18;;;11.90;;
24439;SDS011;12618;54.386;18.394;2022-08-18T14:33:23;14.55;;;12.00;;
24439;SDS011;12618;54.386;18.394;2022-08-18T14:35:54;15.23;;;11.03;;
24439;SDS011;12618;54.386;18.394;2022-08-18T14:38:24;16.80;;;11.28;;
24439;SDS011;12618;54.386;18.394;2022-08-18T14:40:55;13.68;;;11.08;;
24439;SDS011;12618;54.386;18.394;2022-08-18T14:43:29;16.48;;;10.35;;
24439;SDS011;12618;54.386;18.394;2022-08-18T14:46:04;15.35;;;10.80;;
24439;SDS011;12618;54.386;18.394;2022-08-18T14:48:44;12.40;;;10.32;;
24439;SDS011;12618;54.386;18.394;2022-08-18T14:51:12;12.63;;;9.68;;
24439;SDS011;12618;54.386;18.394;2022-08-18T14:53:46;14.50;;;10.65;;
24439;SDS011;12618;54.386;18.394;2022-08-18T14:56:16;10.85;;;9.85;;
24439;SDS011;12618;54.386;18.394;2022-08-18T14:58:46;15.18;;;10.58;;
24439;SDS011;12618;54.386;18.394;2022-08-18T15:01:17;10.70;;;9.33;;
24439;SDS011;12618;54.386;18.394;2022-08-18T15:03:48;11.18;;;10.08;;
24439;SDS011;12618;54.386;18.394;2022-08-18T15:06:18;11.53;;;9.65;;
24439;SDS011;12618;54.386;18.394;2022-08-18T15:08:49;11.83;;;9.70;;
24439;SDS011;12618;54.386;18.394;2022-08-18T15:11:19;12.60;;;9.05;;
24439;SDS011;12618;54.386;18.394;2022-08-18T15:13:50;10.38;;;9.28;;
24439;SDS011;12618;54.386;18.394;2022-08-18T15:16:21;11.12;;;9.25;;
24439;SDS011;12618;54.386;18.394;2022-08-18T15:18:52;12.25;;;9.45;;
24439;SDS011;12618;54.386;18.394;2022-08-18T15:21:22;15.23;;;9.63;;
24439;SDS011;12618;54.386;18.394;2022-08-18T15:24:11;9.83;;;8.78;;
24439;SDS011;12618;54.386;18.394;2022-08-18T15:27:00;10.85;;;9.43;;
24439;SDS011;12618;54.386;18.394;2022-08-18T15:29:33;13.98;;;9.60;;
24439;SDS011;12618;54.386;18.394;2022-08-18T15:32:04;15.13;;;9.30;;
24439;SDS011;12618;54.386;18.394;2022-08-18T15:34:35;15.23;;;9.53;;
24439;SDS011;12618;54.386;18.394;2022-08-18T15:37:07;14.43;;;9.75;;
24439;SDS011;12618;54.386;18.394;2022-08-18T15:39:37;11.83;;;9.48;;
24439;SDS011;12618;54.386;18.394;2022-08-18T15:42:09;11.78;;;9.25;;
24439;SDS011;12618;54.386;18.394;2022-08-18T15:44:40;16.67;;;9.05;;
24439;SDS011;12618;54.386;18.394;2022-08-18T15:47:10;13.22;;;9.28;;
24439;SDS011;12618;54.386;18.394;2022-08-18T15:49:41;10.08;;;9.03;;
24439;SDS011;12618;54.386;18.394;2022-08-18T15:52:11;13.85;;;8.65;;
24439;SDS011;12618;54.386;18.394;2022-08-18T15:54:42;10.23;;;9.03;;
24439;SDS011;12618;54.386;18.394;2022-08-18T15:57:13;14.98;;;9.83;;
24439;SDS011;12618;54.386;18.394;2022-08-18T15:59:44;14.05;;;9.53;;
24439;SDS011;12618;54.386;18.394;2022-08-18T16:02:15;14.00;;;9.60;;
24439;SDS011;12618;54.386;18.394;2022-08-18T16:04:46;13.15;;;9.78;;
24439;SDS011;12618;54.386;18.394;2022-08-18T16:07:16;13.60;;;10.15;;
24439;SDS011;12618;54.386;18.394;2022-08-18T16:09:47;10.82;;;9.70;;
24439;SDS011;12618;54.386;18.394;2022-08-18T16:12:19;14.05;;;11.50;;
24439;SDS011;12618;54.386;18.394;2022-08-18T16:14:51;14.10;;;10.15;;
24439;SDS011;12618;54.386;18.394;2022-08-18T16:17:22;12.75;;;9.90;;
24439;SDS011;12618;54.386;18.394;2022-08-18T16:19:52;11.85;;;10.75;;
24439;SDS011;12618;54.386;18.394;2022-08-18T16:22:23;11.10;;;9.50;;
24439;SDS011;12618;54.386;18.394;2022-08-18T16:24:53;10.55;;;9.48;;
24439;SDS011;12618;54.386;18.394;2022-08-18T16:27:27;11.03;;;9.15;;
24439;SDS011;12618;54.386;18.394;2022-08-18T16:29:59;11.22;;;9.10;;
24439;SDS011;12618;54.386;18.394;2022-08-18T16:32:30;13.98;;;10.23;;
24439;SDS011;12618;54.386;18.394;2022-08-18T16:35:01;14.28;;;10.00;;
24439;SDS011;12618;54.386;18.394;2022-08-18T16:37:32;14.05;;;10.40;;
24439;SDS011;12618;54.386;18.394;2022-08-18T16:40:03;15.48;;;10.72;;
24439;SDS011;12618;54.386;18.394;2022-08-18T16:42:35;18.90;;;11.75;;
24439;SDS011;12618;54.386;18.394;2022-08-18T16:45:06;17.23;;;12.45;;
24439;SDS011;12618;54.386;18.394;2022-08-18T16:47:37;18.62;;;13.15;;
24439;SDS011;12618;54.386;18.394;2022-08-18T16:50:11;13.35;;;11.95;;
24439;SDS011;12618;54.386;18.394;2022-08-18T16:52:41;15.65;;;11.68;;
24439;SDS011;12618;54.386;18.394;2022-08-18T16:55:12;14.15;;;10.80;;
24439;SDS011;12618;54.386;18.394;2022-08-18T16:57:42;12.70;;;10.63;;
24439;SDS011;12618;54.386;18.394;2022-08-18T17:00:32;14.28;;;10.85;;
24439;SDS011;12618;54.386;18.394;2022-08-18T17:03:22;16.50;;;10.70;;
24439;SDS011;12618;54.386;18.394;2022-08-18T17:06:12;14.93;;;10.28;;
24439;SDS011;12618;54.386;18.394;2022-08-18T17:08:43;14.45;;;10.10;;
24439;SDS011;12618;54.386;18.394;2022-08-18T17:11:15;14.33;;;10.10;;
24439;SDS011;12618;54.386;18.394;2022-08-18T17:13:47;11.68;;;9.30;;
24439;SDS011;12618;54.386;18.394;2022-08-18T17:16:18;12.23;;;10.03;;
24439;SDS011;12618;54.386;18.394;2022-08-18T17:18:49;13.60;;;10.38;;
24439;SDS011;12618;54.386;18.394;2022-08-18T17:21:21;14.58;;;10.63;;